createdAt,value
2022-08-20T00:01:01.574Z,15.45
2022-08-20T00:03:33.028Z,14.30
2022-08-20T00:06:06.069Z,14.93
2022-08-20T00:08:34.341Z,13.70
2022-08-20T00:11:03.257Z,13.07
2022-08-20T00:13:34.642Z,14.02
2022-08-20T00:16:02.702Z,15.52
2022-08-20T00:18:31.007Z,16.02
2022-08-20T00:21:01.051Z,14.30
2022-08-20T00:23:30.274Z,15.57
2022-08-20T00:25:58.737Z,17.33
2022-08-20T00:28:26.558Z,16.88
2022-08-20T00:30:54.674Z,16.58
2022-08-20T00:33:24.494Z,18.40
2022-08-20T00:35:56.321Z,15.82
2022-08-20T00:38:25.555Z,16.10
2022-08-20T00:40:58.449Z,15.98
2022-08-20T00:43:35.525Z,16.42
2022-08-20T00:46:06.890Z,17.23
2022-08-20T00:48:37.402Z,17.98
2022-08-20T00:51:08.624Z,18.00
2022-08-20T00:53:38.922Z,18.23
2022-08-20T00:56:10.582Z,16.52
2022-08-20T00:58:41.192Z,18.17
2022-08-20T01:01:10.384Z,17.25
2022-08-20T01:03:38.341Z,18.17
2022-08-20T01:06:06.704Z,17.17
2022-08-20T01:08:34.677Z,17.67
2022-08-20T01:11:09.973Z,18.88
2022-08-20T01:13:41.789Z,17.58
2022-08-20T01:16:19.134Z,17.85
2022-08-20T01:18:49.413Z,17.38
2022-08-20T01:21:22.155Z,17.30
2022-08-20T01:23:57.061Z,18.08
2022-08-20T01:26:30.219Z,17.75
2022-08-20T01:29:02.486Z,18.40
2022-08-20T01:31:34.170Z,18.00
2022-08-20T01:34:05.068Z,18.30
2022-08-20T01:36:45.543Z,16.15
2022-08-20T01:39:18.439Z,16.42
2022-08-20T01:41:57.094Z,17.77
2022-08-20T01:44:25.739Z,18.58
2022-08-20T01:46:57.756Z,19.45
2022-08-20T01:49:29.415Z,19.38
2022-08-20T01:52:00.420Z,18.08
2022-08-20T01:54:29.294Z,14.48
2022-08-20T01:57:01.649Z,15.73
2022-08-20T01:59:30.632Z,18.80
2022-08-20T02:01:59.832Z,18.10
2022-08-20T02:04:27.842Z,16.65
2022-08-20T02:06:58.412Z,18.30
2022-08-20T02:09:27.980Z,20.02
2022-08-20T02:11:56.535Z,22.98
2022-08-20T02:14:26.640Z,19.33
2022-08-20T02:16:58.374Z,17.52
2022-08-20T02:19:32.090Z,19.15
2022-08-20T02:22:02.349Z,18.98
2022-08-20T02:24:30.938Z,18.33
2022-08-20T02:26:58.806Z,18.00
2022-08-20T02:29:28.053Z,17.90
2022-08-20T02:32:32.341Z,17.27
2022-08-20T02:34:44.178Z,18.35
2022-08-20T02:37:14.593Z,19.95
2022-08-20T02:39:42.419Z,21.13
2022-08-20T02:42:12.292Z,20.13
2022-08-20T02:44:41.625Z,22.23
2022-08-20T02:47:09.397Z,20.95
2022-08-20T02:49:37.643Z,21.17
2022-08-20T02:52:05.820Z,20.75
2022-08-20T02:54:33.609Z,19.23
2022-08-20T02:57:03.543Z,21.48
2022-08-20T02:59:31.610Z,22.60
2022-08-20T03:02:01.334Z,21.55
2022-08-20T03:04:29.435Z,21.20
2022-08-20T03:06:57.741Z,20.55
2022-08-20T03:09:25.622Z,19.83
2022-08-20T03:11:54.366Z,19.27
2022-08-20T03:14:22.349Z,19.23
2022-08-20T03:16:50.453Z,18.45
2022-08-20T03:19:19.747Z,18.35
2022-08-20T03:21:48.076Z,17.73
2022-08-20T03:24:16.166Z,17.17
2022-08-20T03:26:44.279Z,18.20
2022-08-20T03:29:12.186Z,18.15
2022-08-20T03:31:40.040Z,17.23
2022-08-20T03:34:08.195Z,17.38
2022-08-20T03:36:37.671Z,16.80
2022-08-20T03:39:11.550Z,16.92
2022-08-20T03:41:40.197Z,17.25
2022-08-20T03:44:08.097Z,18.08
2022-08-20T03:46:36.047Z,16.88
2022-08-20T03:49:04.507Z,17.75
2022-08-20T03:51:45.815Z,16.60
2022-08-20T03:54:22.999Z,17.70
2022-08-20T03:56:50.869Z,18.40
2022-08-20T03:59:18.723Z,16.52
2022-08-20T04:01:47.088Z,16.67
2022-08-20T04:04:16.101Z,15.90
2022-08-20T04:06:45.403Z,16.55
2022-08-20T04:09:13.428Z,15.60
2022-08-20T04:11:43.090Z,14.63
2022-08-20T04:14:11.996Z,15.40
2022-08-20T04:16:45.703Z,14.70
2022-08-20T04:19:16.904Z,16.25
2022-08-20T04:21:48.722Z,16.08
2022-08-20T04:24:22.532Z,16.20
2022-08-20T04:27:02.644Z,15.15
2022-08-20T04:29:32.400Z,15.35
2022-08-20T04:32:03.353Z,15.93
2022-08-20T04:34:34.825Z,15.82
2022-08-20T04:37:02.681Z,15.45
2022-08-20T04:39:30.733Z,16.25
2022-08-20T04:41:59.420Z,16.20
2022-08-20T04:44:27.425Z,15.38
2022-08-20T04:46:56.056Z,16.02
2022-08-20T04:49:25.025Z,15.10
2022-08-20T04:51:54.534Z,15.48
2022-08-20T04:54:22.494Z,15.18
2022-08-20T04:56:50.953Z,15.52
2022-08-20T04:59:20.122Z,17.25
2022-08-20T05:01:47.891Z,15.82
2022-08-20T05:04:15.882Z,15.85
2022-08-20T05:06:44.458Z,15.57
2022-08-20T05:09:12.405Z,14.98
2022-08-20T05:11:40.450Z,15.25
2022-08-20T05:14:09.899Z,14.45
2022-08-20T05:16:40.515Z,13.10
2022-08-20T05:19:11.270Z,12.48
2022-08-20T05:21:39.142Z,12.00
2022-08-20T05:24:07.628Z,12.13
2022-08-20T05:26:35.833Z,11.73
2022-08-20T05:29:05.157Z,11.55
2022-08-20T05:31:34.609Z,12.02
2022-08-20T05:34:09.361Z,11.05
2022-08-20T05:36:38.424Z,11.65
2022-08-20T05:39:06.388Z,10.60
2022-08-20T05:41:34.164Z,11.27
2022-08-20T05:44:02.037Z,11.65
2022-08-20T05:46:31.055Z,11.35
2022-08-20T05:48:59.732Z,11.02
2022-08-20T05:51:29.941Z,11.63
2022-08-20T05:53:59.451Z,12.25
2022-08-20T05:56:30.460Z,12.00
2022-08-20T05:59:02.441Z,11.13
2022-08-20T06:01:30.491Z,11.55
2022-08-20T06:04:15.937Z,11.10
2022-08-20T06:06:47.286Z,11.13
2022-08-20T06:09:28.021Z,11.77
2022-08-20T06:12:02.304Z,11.25
2022-08-20T06:14:30.936Z,12.05
2022-08-20T06:17:05.367Z,12.60
2022-08-20T06:19:34.158Z,11.05
2022-08-20T06:22:06.767Z,11.73
2022-08-20T06:24:46.372Z,11.55
2022-08-20T06:27:17.025Z,12.10
2022-08-20T06:29:45.361Z,12.55
2022-08-20T06:32:14.061Z,12.43
2022-08-20T06:34:50.494Z,10.93
2022-08-20T06:37:23.626Z,11.68
2022-08-20T06:40:02.765Z,12.43
2022-08-20T06:42:31.080Z,12.63
2022-08-20T06:45:00.428Z,12.93
2022-08-20T06:47:28.229Z,14.18
2022-08-20T06:49:56.174Z,15.43
2022-08-20T06:52:41.582Z,17.17
2022-08-20T06:55:15.966Z,17.05
2022-08-20T06:57:44.678Z,16.33
2022-08-20T07:00:15.261Z,16.52
2022-08-20T07:02:43.366Z,16.83
2022-08-20T07:05:11.692Z,17.88
2022-08-20T07:07:44.988Z,19.17
2022-08-20T07:10:15.404Z,18.50
2022-08-20T07:12:43.341Z,18.10
2022-08-20T07:15:12.913Z,18.58
2022-08-20T07:17:42.322Z,17.38
2022-08-20T07:20:15.054Z,17.20
2022-08-20T07:22:45.349Z,16.45
2022-08-20T07:25:16.112Z,15.80
2022-08-20T07:27:44.713Z,14.95
2022-08-20T07:30:56.481Z,13.65
2022-08-20T07:33:28.363Z,15.27
2022-08-20T07:35:56.601Z,13.35
2022-08-20T07:38:27.515Z,15.93
2022-08-20T07:40:58.758Z,16.38
2022-08-20T07:43:27.548Z,16.55
2022-08-20T07:45:57.565Z,16.38
2022-08-20T07:51:03.580Z,15.70
2022-08-20T07:53:35.815Z,12.48
2022-08-20T07:56:06.825Z,13.20
2022-08-20T07:58:37.150Z,12.98
2022-08-20T08:01:05.585Z,12.68
2022-08-20T08:03:39.865Z,12.52
2022-08-20T08:06:29.847Z,13.50
2022-08-20T08:14:00.721Z,12.45
2022-08-20T08:16:31.052Z,11.98
2022-08-20T08:19:01.951Z,12.13
2022-08-20T08:21:31.981Z,12.35
2022-08-20T08:24:02.588Z,12.63
2022-08-20T08:26:30.564Z,11.60
2022-08-20T08:28:59.022Z,11.93
2022-08-20T08:31:27.537Z,11.05
2022-08-20T08:33:55.485Z,11.77
2022-08-20T08:36:25.261Z,11.18
2022-08-20T08:38:54.561Z,11.88
2022-08-20T08:41:32.106Z,11.80
2022-08-20T08:44:05.697Z,12.02
2022-08-20T08:46:40.222Z,11.10
2022-08-20T08:49:12.589Z,12.13
2022-08-20T08:51:44.997Z,11.95
2022-08-20T08:54:17.219Z,12.95
2022-08-20T08:56:49.833Z,12.43
2022-08-20T08:59:20.526Z,11.85
2022-08-20T09:01:55.287Z,11.82
2022-08-20T09:04:31.528Z,12.93
2022-08-20T09:07:00.595Z,16.83
2022-08-20T09:09:32.370Z,11.00
2022-08-20T09:12:07.288Z,11.70
2022-08-20T09:14:36.382Z,12.20
2022-08-20T09:17:04.929Z,11.65
2022-08-20T09:19:33.067Z,10.70
2022-08-20T09:22:07.439Z,11.20
2022-08-20T09:24:35.547Z,11.13
2022-08-20T09:27:05.137Z,11.82
2022-08-20T09:29:33.594Z,11.15
2022-08-20T09:32:06.373Z,11.10
2022-08-20T09:34:36.989Z,10.95
2022-08-20T09:37:04.929Z,11.35
2022-08-20T09:39:33.145Z,10.88
2022-08-20T09:42:10.001Z,10.25
2022-08-20T09:44:37.873Z,11.15
2022-08-20T09:47:06.431Z,11.07
2022-08-20T09:49:34.425Z,11.02
2022-08-20T09:52:02.634Z,11.25
2022-08-20T09:54:33.657Z,11.32
2022-08-20T09:57:05.455Z,10.75
2022-08-20T09:59:36.761Z,11.07
2022-08-20T10:04:32.658Z,10.43
2022-08-20T10:07:00.672Z,10.48
2022-08-20T10:09:28.462Z,11.85
2022-08-20T10:11:56.263Z,10.32
2022-08-20T10:14:24.780Z,10.40
2022-08-20T10:16:59.922Z,9.75
2022-08-20T10:19:30.076Z,9.57
2022-08-20T10:21:59.106Z,10.00
2022-08-20T10:24:28.161Z,10.30
2022-08-20T10:26:57.469Z,9.98
2022-08-20T10:29:25.906Z,10.13
2022-08-20T10:31:54.865Z,9.63
2022-08-20T10:34:24.691Z,9.98
2022-08-20T10:36:53.305Z,9.30
2022-08-20T10:39:21.427Z,9.27
2022-08-20T10:41:49.385Z,9.13
2022-08-20T10:44:17.669Z,9.75
2022-08-20T10:46:45.957Z,8.85
2022-08-20T10:49:13.913Z,9.15
2022-08-20T10:51:43.204Z,9.90
2022-08-20T10:54:12.507Z,9.70
2022-08-20T10:56:40.909Z,9.35
2022-08-20T10:59:09.368Z,9.38
2022-08-20T11:01:37.157Z,9.52
2022-08-20T11:04:05.755Z,9.70
2022-08-20T11:06:33.705Z,9.88
2022-08-20T11:09:02.871Z,9.65
2022-08-20T11:11:30.849Z,9.27
2022-08-20T11:13:58.968Z,10.30
2022-08-20T11:16:26.808Z,9.15
2022-08-20T11:18:54.733Z,10.27
2022-08-20T11:21:22.757Z,9.18
2022-08-20T11:23:50.521Z,9.48
2022-08-20T11:26:23.571Z,9.82
2022-08-20T11:28:51.466Z,9.18
2022-08-20T11:31:19.509Z,8.95
2022-08-20T11:33:47.342Z,10.10
2022-08-20T11:36:15.282Z,9.80
2022-08-20T11:38:43.288Z,9.32
2022-08-20T11:41:11.226Z,9.70
2022-08-20T11:43:40.598Z,9.15
2022-08-20T11:46:08.620Z,9.88
2022-08-20T11:48:36.635Z,9.27
2022-08-20T11:51:05.210Z,9.40
2022-08-20T11:53:33.277Z,8.88
2022-08-20T11:56:02.407Z,9.32
2022-08-20T11:58:32.671Z,9.68
2022-08-20T12:01:02.059Z,8.63
2022-08-20T12:03:30.903Z,9.25
2022-08-20T12:05:58.670Z,9.25
2022-08-20T12:08:28.209Z,9.90
2022-08-20T12:10:57.752Z,9.75
2022-08-20T12:13:31.465Z,10.40
2022-08-20T12:16:15.724Z,9.93
2022-08-20T12:18:43.566Z,10.35
2022-08-20T12:21:11.713Z,11.00
2022-08-20T12:23:39.766Z,11.35
2022-08-20T12:26:07.692Z,11.45
2022-08-20T12:28:35.596Z,11.57
2022-08-20T12:31:03.558Z,11.50
2022-08-20T12:33:32.827Z,10.55
2022-08-20T12:36:01.857Z,11.33
2022-08-20T12:38:30.042Z,11.38
2022-08-20T12:40:57.975Z,11.85
2022-08-20T12:43:25.794Z,12.25
2022-08-20T12:45:54.216Z,11.32
2022-08-20T12:48:22.015Z,11.38
2022-08-20T12:50:52.651Z,11.70
2022-08-20T12:53:20.660Z,11.60
2022-08-20T12:55:48.469Z,11.63
2022-08-20T12:58:16.318Z,11.85
2022-08-20T13:00:50.733Z,12.32
2022-08-20T13:03:20.691Z,11.25
2022-08-20T13:05:50.302Z,11.45
2022-08-20T13:08:20.013Z,10.40
2022-08-20T13:10:48.420Z,10.60
2022-08-20T13:13:20.377Z,9.95
2022-08-20T13:15:49.169Z,9.43
2022-08-20T13:18:17.124Z,9.05
2022-08-20T13:20:45.205Z,6.82
2022-08-20T13:23:13.026Z,7.40
2022-08-20T13:25:42.380Z,5.53
2022-08-20T13:28:10.217Z,3.50
2022-08-20T13:30:38.682Z,2.60
2022-08-20T13:33:07.051Z,1.60
2022-08-20T13:35:34.928Z,1.90
2022-08-20T13:38:02.767Z,2.63
2022-08-20T13:40:30.769Z,1.75
2022-08-20T13:43:05.901Z,2.53
2022-08-20T13:45:34.591Z,3.05
2022-08-20T13:48:02.374Z,3.53
2022-08-20T13:50:30.366Z,3.53
2022-08-20T13:52:58.644Z,4.28
2022-08-20T13:55:28.089Z,4.47
2022-08-20T13:57:58.069Z,4.18
2022-08-20T14:00:31.095Z,4.95
2022-08-20T14:02:59.700Z,6.68
2022-08-20T14:05:27.699Z,5.65
2022-08-20T14:07:55.451Z,5.70
2022-08-20T14:10:31.189Z,5.43
2022-08-20T14:12:59.627Z,5.25
2022-08-20T14:15:28.873Z,4.90
2022-08-20T14:17:58.649Z,5.55
2022-08-20T14:20:31.968Z,4.72
2022-08-20T14:23:01.653Z,5.20
2022-08-20T14:25:31.652Z,5.78
2022-08-20T14:27:59.875Z,5.45
2022-08-20T14:30:30.948Z,6.97
2022-08-20T14:32:58.986Z,7.15
2022-08-20T14:35:26.838Z,6.97
2022-08-20T14:37:56.603Z,7.63
2022-08-20T14:40:26.352Z,7.57
2022-08-20T14:42:54.969Z,7.80
2022-08-20T14:45:24.037Z,7.20
2022-08-20T14:47:57.089Z,7.60
2022-08-20T14:50:28.505Z,7.18
2022-08-20T14:52:57.394Z,6.50
2022-08-20T14:55:29.019Z,6.55
2022-08-20T14:57:57.579Z,6.97
2022-08-20T15:00:28.074Z,6.30
2022-08-20T15:02:58.146Z,6.70
2022-08-20T15:05:26.273Z,6.22
2022-08-20T15:07:55.025Z,7.07
2022-08-20T15:10:25.886Z,6.53
2022-08-20T15:12:53.919Z,6.83
2022-08-20T15:15:22.660Z,6.63
2022-08-20T15:17:53.217Z,7.10
2022-08-20T15:20:24.515Z,7.60
2022-08-20T15:22:52.899Z,7.43
2022-08-20T15:25:23.058Z,6.57
2022-08-20T15:27:51.668Z,6.85
2022-08-20T15:30:21.659Z,7.82
2022-08-20T15:32:54.612Z,8.07
2022-08-20T15:35:26.838Z,7.70
2022-08-20T15:37:57.684Z,7.15
2022-08-20T15:40:28.662Z,7.90
2022-08-20T15:42:57.575Z,8.15
2022-08-20T15:45:25.942Z,7.50
2022-08-20T15:47:56.524Z,7.47
2022-08-20T15:50:38.970Z,6.97
2022-08-20T15:53:11.591Z,8.35
2022-08-20T15:55:44.971Z,7.93
2022-08-20T15:58:18.837Z,8.83
2022-08-20T16:00:57.066Z,8.23
2022-08-20T16:04:24.690Z,8.43
2022-08-20T16:06:59.601Z,8.10
2022-08-20T16:09:41.322Z,8.10
2022-08-20T16:12:12.462Z,9.55
2022-08-20T16:14:43.608Z,8.32
2022-08-20T16:17:16.077Z,7.97
2022-08-20T16:19:57.030Z,8.63
2022-08-20T16:22:28.950Z,8.93
2022-08-20T16:24:57.735Z,9.48
2022-08-20T16:27:33.533Z,9.80
2022-08-20T16:30:05.294Z,8.68
2022-08-20T16:32:38.547Z,8.75
2022-08-20T16:35:21.160Z,8.85
2022-08-20T16:37:58.817Z,9.10
2022-08-20T16:40:30.115Z,8.95
2022-08-20T16:43:00.505Z,9.18
2022-08-20T16:45:33.484Z,9.60
2022-08-20T16:48:05.385Z,10.25
2022-08-20T16:50:39.263Z,10.57
2022-08-20T16:53:14.775Z,10.55
2022-08-20T16:55:43.348Z,11.05
2022-08-20T16:58:11.163Z,10.95
2022-08-20T17:00:44.861Z,11.40
2022-08-20T17:03:31.646Z,12.07
2022-08-20T17:06:18.069Z,11.65
2022-08-20T17:08:51.109Z,11.82
2022-08-20T17:11:26.139Z,11.60
2022-08-20T17:14:09.038Z,11.45
2022-08-20T17:16:40.692Z,11.68
2022-08-20T17:21:39.114Z,12.55
2022-08-20T17:24:16.478Z,12.35
2022-08-20T17:26:48.146Z,11.18
2022-08-20T17:29:21.158Z,12.20
2022-08-20T17:31:51.679Z,11.98
2022-08-20T17:34:21.490Z,12.50
2022-08-20T17:36:53.371Z,11.55
2022-08-20T17:39:24.789Z,13.18
2022-08-20T17:41:56.109Z,13.27
2022-08-20T17:44:29.479Z,13.70
2022-08-20T17:47:00.021Z,13.85
2022-08-20T17:49:35.158Z,14.40
2022-08-20T17:52:06.478Z,15.52
2022-08-20T17:54:41.350Z,16.00
2022-08-20T17:57:15.625Z,15.85
2022-08-20T17:59:59.686Z,15.57
2022-08-20T18:02:31.813Z,16.15
2022-08-20T18:04:59.981Z,16.48
2022-08-20T18:07:39.401Z,16.10
2022-08-20T18:10:14.676Z,17.02
2022-08-20T18:12:50.670Z,15.02
2022-08-20T18:15:24.295Z,15.38
2022-08-20T18:18:13.171Z,15.52
2022-08-20T18:21:08.258Z,16.08
2022-08-20T18:23:41.402Z,16.00
2022-08-20T18:26:15.018Z,15.23
2022-08-20T18:28:47.870Z,18.58
2022-08-20T18:31:27.088Z,16.42
2022-08-20T18:33:55.993Z,16.13
2022-08-20T18:36:27.464Z,16.10
2022-08-20T18:39:03.649Z,16.10
2022-08-20T18:41:36.469Z,15.15
2022-08-20T18:44:08.156Z,15.40
2022-08-20T18:46:38.094Z,16.10
2022-08-20T18:49:08.498Z,15.00
2022-08-20T18:51:42.017Z,17.40
2022-08-20T18:54:22.629Z,29.05
2022-08-20T18:57:04.966Z,27.05
2022-08-20T18:59:39.015Z,34.15
2022-08-20T19:02:17.339Z,32.10
2022-08-20T19:04:52.838Z,34.78
2022-08-20T19:07:48.997Z,33.85
2022-08-20T19:10:35.394Z,37.88
2022-08-20T19:13:27.981Z,34.00
2022-08-20T19:16:02.508Z,34.35
2022-08-20T19:18:38.365Z,34.15
2022-08-20T19:21:13.453Z,28.77
2022-08-20T19:23:49.368Z,27.80
2022-08-20T19:26:25.287Z,24.13
2022-08-20T19:28:59.920Z,24.10
2022-08-20T19:31:30.629Z,28.73
2022-08-20T19:34:20.247Z,26.85
2022-08-20T19:36:59.462Z,27.15
2022-08-20T19:39:37.101Z,27.20
2022-08-20T19:42:15.138Z,26.20
2022-08-20T19:44:50.174Z,27.65
2022-08-20T19:47:26.465Z,25.77
2022-08-20T19:50:05.657Z,26.98
2022-08-20T19:52:43.241Z,25.90
2022-08-20T19:55:21.538Z,26.40
2022-08-20T19:57:55.265Z,26.83
2022-08-20T20:00:26.147Z,27.83
2022-08-20T20:02:54.269Z,27.27
2022-08-20T20:05:23.210Z,26.92
2022-08-20T20:07:52.876Z,25.58
2022-08-20T20:10:32.560Z,26.67
2022-08-20T20:13:08.587Z,24.73
2022-08-20T20:15:38.540Z,23.58
2022-08-20T20:18:07.258Z,21.08
2022-08-20T20:20:50.218Z,21.45
2022-08-20T20:23:27.690Z,21.20
2022-08-20T20:26:11.909Z,21.13
2022-08-20T20:28:48.151Z,21.75
2022-08-20T20:31:23.417Z,23.42
2022-08-20T20:33:54.934Z,24.10
2022-08-20T20:36:34.906Z,23.73
2022-08-20T20:39:07.265Z,23.67
2022-08-20T20:41:37.942Z,21.98
2022-08-20T20:44:08.397Z,21.92
2022-08-20T20:46:40.638Z,20.75
2022-08-20T20:49:18.799Z,19.35
2022-08-20T20:51:55.230Z,17.63
2022-08-20T20:54:27.270Z,16.23
2022-08-20T20:57:01.295Z,15.13
2022-08-20T20:59:30.253Z,13.43
2022-08-20T21:02:00.577Z,14.13
2022-08-20T21:04:29.298Z,13.27
2022-08-20T21:06:59.327Z,12.93
2022-08-20T21:09:27.646Z,12.13
2022-08-20T21:11:55.633Z,12.02
2022-08-20T21:14:23.770Z,10.82
2022-08-20T21:16:52.022Z,11.40
2022-08-20T21:19:21.523Z,13.57
2022-08-20T21:21:49.581Z,16.23
2022-08-20T21:24:17.521Z,17.17
2022-08-20T21:26:47.051Z,17.13
2022-08-20T21:29:18.057Z,16.60
2022-08-20T21:31:46.790Z,16.92
2022-08-20T21:34:16.443Z,16.92
2022-08-20T21:36:46.381Z,18.00
2022-08-20T21:39:14.573Z,16.65
2022-08-20T21:41:43.090Z,17.60
2022-08-20T21:44:16.127Z,16.67
2022-08-20T21:46:49.761Z,17.45
2022-08-20T21:49:19.496Z,16.77
2022-08-20T21:51:48.887Z,16.63
2022-08-20T21:54:17.237Z,15.50
2022-08-20T21:56:47.586Z,16.00
2022-08-20T21:59:18.093Z,16.20
2022-08-20T22:01:46.401Z,14.10
2022-08-20T22:04:14.262Z,14.95
2022-08-20T22:06:43.061Z,13.52
2022-08-20T22:09:12.516Z,13.27
2022-08-20T22:11:40.394Z,14.38
2022-08-20T22:14:10.224Z,14.95
2022-08-20T22:16:38.619Z,15.07
2022-08-20T22:19:16.184Z,13.68
2022-08-20T22:21:44.872Z,13.57
2022-08-20T22:24:14.761Z,13.02
2022-08-20T22:26:43.694Z,13.95
2022-08-20T22:29:12.931Z,13.35
2022-08-20T22:31:43.615Z,12.85
2022-08-20T22:34:13.530Z,14.85
2022-08-20T22:36:42.158Z,17.30
2022-08-20T22:39:10.469Z,17.75
2022-08-20T22:41:40.369Z,19.15
2022-08-20T22:44:08.855Z,22.52
2022-08-20T22:46:43.669Z,22.58
2022-08-20T22:49:18.890Z,25.20
2022-08-20T22:51:47.039Z,25.42
2022-08-20T22:54:20.381Z,27.77
2022-08-20T22:56:50.999Z,26.38
2022-08-20T22:59:19.886Z,24.35
2022-08-20T23:01:48.272Z,25.48
2022-08-20T23:04:24.161Z,25.80
2022-08-20T23:06:52.489Z,26.13
2022-08-20T23:09:21.309Z,25.02
2022-08-20T23:11:50.979Z,24.08
2022-08-20T23:14:19.686Z,25.95
2022-08-20T23:16:53.270Z,26.20
2022-08-20T23:19:23.176Z,26.40
2022-08-20T23:21:51.833Z,26.38
2022-08-20T23:24:20.917Z,28.67
2022-08-20T23:26:52.757Z,28.35
2022-08-20T23:29:25.659Z,27.63
2022-08-20T23:31:55.494Z,28.20
2022-08-20T23:34:23.587Z,26.25
2022-08-20T23:36:52.387Z,27.63
2022-08-20T23:39:20.746Z,25.60
2022-08-20T23:41:50.461Z,26.55
2022-08-20T23:44:25.191Z,25.45
2022-08-20T23:46:56.644Z,25.77
2022-08-20T23:49:24.624Z,24.13
2022-08-20T23:51:52.671Z,22.75
2022-08-20T23:54:20.817Z,22.83
2022-08-20T23:56:50.253Z,22.20
2022-08-20T23:59:18.225Z,23.27
